Time;durP1;ratioP1;P1;durP2;ratioP2;P2;SDS_P1;SDS_P2;PMS_P1;PMS_P2;Temp;Humidity;BMP_temperature;BMP_pressure;BME280_temperature;BME280_humidity;BME280_pressure;Samples;Min_cycle;Max_cycle;Signal;HPM_P1;HPM_P2
2022/09/13 00:02:01;;;;;;;;;;;13.40;99.90;;;;;;5061892;28;20255;-74
2022/09/13 00:04:27;;;;;;;;;;;13.40;99.90;;;;;;5065050;28;19920;-74
2022/09/13 00:06:54;;;;;;;;;;;13.30;99.90;;;;;;5065692;28;20167;-74
2022/09/13 00:09:21;;;;;;;;;;;13.40;99.90;;;;;;5066127;28;19993;-75
2022/09/13 00:11:47;;;;;;;;;;;13.40;99.90;;;;;;5065670;28;19995;-74
2022/09/13 00:14:14;;;;;;;;;;;13.30;99.90;;;;;;5065451;28;20147;-74
2022/09/13 00:16:40;;;;;;;;;;;13.30;99.90;;;;;;5065538;28;19920;-74
2022/09/13 00:19:08;;;;;;;;;;;13.30;99.90;;;;;;5065676;28;20215;-74
2022/09/13 00:21:35;;;;;;;;;;;13.30;99.90;;;;;;5065426;28;19967;-74
2022/09/13 00:24:02;;;;;;;;;;;13.20;99.90;;;;;;5064897;28;19927;-74
2022/09/13 00:26:28;;;;;;;;;;;13.20;99.90;;;;;;5065340;28;19927;-74
2022/09/13 00:28:56;;;;;;;;;;;13.20;99.90;;;;;;5065432;28;19988;-74
2022/09/13 00:31:24;;;;;;;;;;;13.10;99.90;;;;;;5065013;28;19983;-75
2022/09/13 00:33:50;;;;;;;;;;;13.20;99.90;;;;;;5064724;28;19929;-74
2022/09/13 00:36:18;;;;;;;;;;;13.20;99.90;;;;;;5065110;28;19987;-74
2022/09/13 00:38:45;;;;;;;;;;;13.10;99.90;;;;;;5065383;28;19928;-74
2022/09/13 00:41:12;;;;;;;;;;;13.20;99.90;;;;;;5065233;28;20079;-75
2022/09/13 00:43:46;;;;;;;;;;;13.10;99.90;;;;;;5064342;28;19943;-75
2022/09/13 00:46:16;;;;;;;;;;;13.20;99.90;;;;;;5062796;28;19928;-75
2022/09/13 00:48:43;;;;;;;;;;;13.10;99.90;;;;;;5065218;28;19927;-74
2022/09/13 00:51:10;;;;;;;;;;;13.10;99.90;;;;;;5065118;28;20208;-75
2022/09/13 00:53:39;;;;;;;;;;;13.10;99.90;;;;;;5064329;28;19921;-75
2022/09/13 00:56:08;;;;;;;;;;;13.00;99.90;;;;;;5064359;28;19952;-72
2022/09/13 00:58:37;;;;;;;;;;;13.00;99.90;;;;;;5062396;28;19989;-74
2022/09/13 01:01:07;;;;;;;;;;;13.00;99.90;;;;;;5061145;28;19927;-74
2022/09/13 01:03:35;;;;;;;;;;;12.90;99.90;;;;;;5064118;28;19920;-74
2022/09/13 01:06:04;;;;;;;;;;;12.90;99.90;;;;;;5064651;28;19921;-75
2022/09/13 01:08:32;;;;;;;;;;;12.90;99.90;;;;;;5064483;28;19927;-74
2022/09/13 01:11:01;;;;;;;;;;;12.90;99.90;;;;;;5064326;28;19984;-73
2022/09/13 01:13:28;;;;;;;;;;;12.80;99.90;;;;;;5064151;28;19925;-74
2022/09/13 01:15:55;;;;;;;;;;;12.80;99.90;;;;;;5064310;28;20334;-72
2022/09/13 01:18:22;;;;;;;;;;;12.90;99.90;;;;;;5064431;28;19927;-74
2022/09/13 01:21:11;;;;;;;;;;;12.90;99.90;;;;;;5064305;28;20159;-74
2022/09/13 01:23:51;;;;;;;;;;;12.90;99.90;;;;;;5063617;28;19921;-74
2022/09/13 01:26:33;;;;;;;;;;;12.90;99.90;;;;;;5064252;28;19988;-74
2022/09/13 01:29:23;;;;;;;;;;;12.80;99.90;;;;;;5064462;28;19927;-75
2022/09/13 01:31:54;;;;;;;;;;;12.90;99.90;;;;;;5063753;28;19920;-74
2022/09/13 01:34:27;;;;;;;;;;;12.90;99.90;;;;;;5060176;28;19980;-75
2022/09/13 01:37:00;;;;;;;;;;;12.90;99.90;;;;;;5064056;28;19983;-74
2022/09/13 01:39:31;;;;;;;;;;;12.90;99.90;;;;;;5064384;28;20140;-74
2022/09/13 01:42:01;;;;;;;;;;;12.90;99.90;;;;;;5064207;28;19929;-73
2022/09/13 01:44:32;;;;;;;;;;;12.90;99.90;;;;;;5063184;28;19952;-75
2022/09/13 01:47:04;;;;;;;;;;;12.90;99.90;;;;;;5061787;28;20170;-75
2022/09/13 01:49:35;;;;;;;;;;;12.90;99.90;;;;;;5063919;28;19921;-74
2022/09/13 01:52:05;;;;;;;;;;;12.90;99.90;;;;;;5063819;28;19987;-75
2022/09/13 01:54:37;;;;;;;;;;;12.90;99.90;;;;;;5063161;28;20157;-75
2022/09/13 01:57:09;;;;;;;;;;;12.90;99.90;;;;;;5063589;28;19927;-74
2022/09/13 01:59:38;;;;;;;;;;;12.80;99.90;;;;;;5063828;28;19983;-73
2022/09/13 02:02:07;;;;;;;;;;;12.80;99.90;;;;;;5063353;28;19928;-75
2022/09/13 02:04:37;;;;;;;;;;;12.80;99.90;;;;;;5062700;28;20234;-75
2022/09/13 02:07:06;;;;;;;;;;;12.70;99.90;;;;;;5063578;28;20000;-75
2022/09/13 02:09:35;;;;;;;;;;;12.70;99.90;;;;;;5063337;28;19951;-75
2022/09/13 02:12:04;;;;;;;;;;;12.70;99.90;;;;;;5063613;28;20125;-75
2022/09/13 02:14:32;;;;;;;;;;;12.70;99.90;;;;;;5062565;28;19921;-75
2022/09/13 02:17:04;;;;;;;;;;;12.70;99.90;;;;;;5063468;28;19928;-74
2022/09/13 02:19:35;;;;;;;;;;;12.60;99.90;;;;;;5063269;28;19984;-74
2022/09/13 02:22:03;;;;;;;;;;;12.60;99.90;;;;;;5063126;28;19980;-75
2022/09/13 02:24:32;;;;;;;;;;;12.60;99.90;;;;;;5062452;28;19927;-74
2022/09/13 02:27:22;;;;;;;;;;;12.60;99.90;;;;;;5063123;28;19992;-74
2022/09/13 02:29:50;;;;;;;;;;;12.50;99.90;;;;;;5063001;28;19980;-72
2022/09/13 02:32:21;;;;;;;;;;;12.50;99.90;;;;;;5062998;28;19927;-75
2022/09/13 02:34:51;;;;;;;;;;;12.50;99.90;;;;;;5062369;28;19927;-73
2022/09/13 02:37:19;;;;;;;;;;;12.50;99.90;;;;;;5062591;28;19921;-74
2022/09/13 02:39:49;;;;;;;;;;;12.40;99.90;;;;;;5043904;28;19927;-74
2022/09/13 02:42:18;;;;;;;;;;;12.30;99.90;;;;;;5043132;28;19928;-74
2022/09/13 02:44:45;;;;;;;;;;;12.40;99.90;;;;;;5057318;28;20147;-73
2022/09/13 02:47:20;;;;;;;;;;;12.40;99.90;;;;;;5062413;28;19921;-74
2022/09/13 02:49:54;;;;;;;;;;;12.40;99.90;;;;;;5063118;28;19956;-74
2022/09/13 02:52:23;;;;;;;;;;;12.30;99.90;;;;;;5062709;28;20239;-74
2022/09/13 02:54:53;;;;;;;;;;;12.30;99.90;;;;;;5062003;28;19921;-73
2022/09/13 02:57:21;;;;;;;;;;;12.30;99.90;;;;;;5062449;28;19979;-74
2022/09/13 02:59:48;;;;;;;;;;;12.30;99.90;;;;;;5063109;28;19921;-74
2022/09/13 03:02:16;;;;;;;;;;;12.20;99.90;;;;;;5062602;28;19927;-74
2022/09/13 03:04:43;;;;;;;;;;;12.20;99.90;;;;;;5061044;28;19988;-74
2022/09/13 03:07:11;;;;;;;;;;;12.20;99.90;;;;;;5062838;28;19988;-74
2022/09/13 03:09:42;;;;;;;;;;;12.10;99.90;;;;;;5062895;28;19959;-74
2022/09/13 03:12:16;;;;;;;;;;;12.10;99.90;;;;;;5062750;28;19988;-74
2022/09/13 03:14:48;;;;;;;;;;;12.10;99.90;;;;;;5062273;28;19984;-74
2022/09/13 03:17:23;;;;;;;;;;;12.10;99.90;;;;;;5062697;28;19984;-75
2022/09/13 03:20:07;;;;;;;;;;;12.10;99.90;;;;;;5062788;28;19921;-74
2022/09/13 03:22:46;;;;;;;;;;;12.10;99.90;;;;;;5062224;28;19921;-74
2022/09/13 03:25:19;;;;;;;;;;;12.10;99.90;;;;;;5062612;28;19921;-74
2022/09/13 03:27:50;;;;;;;;;;;12.10;99.90;;;;;;5062759;28;19927;-73
2022/09/13 03:30:17;;;;;;;;;;;12.10;99.90;;;;;;5063022;28;19943;-73
2022/09/13 03:32:48;;;;;;;;;;;12.10;99.90;;;;;;5062021;28;19927;-74
2022/09/13 03:35:20;;;;;;;;;;;12.10;99.90;;;;;;5062531;28;19921;-74
2022/09/13 03:37:54;;;;;;;;;;;12.10;99.90;;;;;;5062931;28;19920;-73
2022/09/13 03:40:22;;;;;;;;;;;12.10;99.90;;;;;;5062820;28;20111;-73
2022/09/13 03:42:51;;;;;;;;;;;12.10;99.90;;;;;;5062128;28;19963;-73
2022/09/13 03:45:20;;;;;;;;;;;12.10;99.90;;;;;;5062353;28;19995;-75
2022/09/13 03:47:48;;;;;;;;;;;12.10;99.90;;;;;;5062778;28;19943;-72
2022/09/13 03:50:18;;;;;;;;;;;12.10;99.90;;;;;;5062724;28;19984;-74
2022/09/13 03:52:47;;;;;;;;;;;12.00;99.90;;;;;;5062013;28;20358;-73
2022/09/13 03:55:17;;;;;;;;;;;12.00;99.90;;;;;;5062187;28;19924;-74
2022/09/13 03:57:44;;;;;;;;;;;12.00;99.90;;;;;;5062683;28;20115;-74
2022/09/13 04:00:13;;;;;;;;;;;12.00;99.90;;;;;;5066140;28;19928;-74
2022/09/13 04:02:40;;;;;;;;;;;12.00;99.90;;;;;;5058232;28;19928;-73
2022/09/13 04:05:07;;;;;;;;;;;12.00;99.90;;;;;;5064709;28;19921;-74
2022/09/13 04:07:33;;;;;;;;;;;12.00;99.90;;;;;;5065946;28;19983;-73
2022/09/13 04:10:00;;;;;;;;;;;12.00;99.90;;;;;;5065810;28;19956;-74
2022/09/13 04:12:30;;;;;;;;;;;12.00;99.90;;;;;;5065485;28;19984;-74
2022/09/13 04:14:56;;;;;;;;;;;12.00;99.90;;;;;;5065360;28;20146;-74
2022/09/13 04:17:23;;;;;;;;;;;11.90;99.90;;;;;;5065645;28;20176;-74
2022/09/13 04:19:52;;;;;;;;;;;11.90;99.90;;;;;;5065060;28;20393;-73
2022/09/13 04:22:18;;;;;;;;;;;11.90;99.90;;;;;;5087016;22;19920;-72
2022/09/13 04:24:45;;;;;;;;;;;11.80;99.90;;;;;;5066246;28;19992;-72
2022/09/13 04:27:12;;;;;;;;;;;11.80;99.90;;;;;;5079547;28;19974;-72
2022/09/13 04:29:40;;;;;;;;;;;11.80;99.90;;;;;;5085615;28;19920;-71
2022/09/13 04:32:08;;;;;;;;;;;11.80;99.90;;;;;;5083694;28;19983;-71
2022/09/13 04:34:34;;;;;;;;;;;11.80;99.90;;;;;;5074701;28;19991;-72
2022/09/13 04:37:01;;;;;;;;;;;11.80;99.90;;;;;;5065042;28;19988;-69
2022/09/13 04:39:28;;;;;;;;;;;11.80;99.90;;;;;;5065127;28;20218;-70
2022/09/13 04:41:54;;;;;;;;;;;11.80;99.90;;;;;;5079985;28;19952;-69
2022/09/13 04:44:21;;;;;;;;;;;11.80;99.90;;;;;;5084845;28;19955;-69
2022/09/13 04:46:50;;;;;;;;;;;11.80;99.90;;;;;;5085119;28;19955;-69
2022/09/13 04:49:18;;;;;;;;;;;11.70;99.90;;;;;;5085518;28;19927;-69
2022/09/13 04:51:45;;;;;;;;;;;11.70;99.90;;;;;;5085539;28;19927;-69
2022/09/13 04:54:12;;;;;;;;;;;11.70;99.90;;;;;;5084842;28;19920;-70
2022/09/13 04:56:39;;;;;;;;;;;11.70;99.90;;;;;;5085661;28;19927;-70
2022/09/13 04:59:05;;;;;;;;;;;11.70;99.90;;;;;;5085567;28;20162;-70
2022/09/13 05:01:32;;;;;;;;;;;11.70;99.90;;;;;;5085283;28;19924;-70
2022/09/13 05:04:00;;;;;;;;;;;11.70;99.90;;;;;;5084988;28;20002;-70
2022/09/13 05:06:28;;;;;;;;;;;11.70;99.90;;;;;;5085386;28;19927;-69
2022/09/13 05:08:55;;;;;;;;;;;11.70;99.90;;;;;;5085416;28;19931;-70
2022/09/13 05:11:22;;;;;;;;;;;11.70;99.90;;;;;;5084728;28;19921;-70
2022/09/13 05:13:51;;;;;;;;;;;11.70;99.90;;;;;;5084743;28;20012;-68
2022/09/13 05:16:18;;;;;;;;;;;11.70;99.90;;;;;;5085239;28;19927;-70
2022/09/13 05:18:45;;;;;;;;;;;11.70;99.90;;;;;;5085033;28;19960;-70
2022/09/13 05:21:13;;;;;;;;;;;11.70;99.90;;;;;;5084840;28;19927;-70
2022/09/13 05:23:40;;;;;;;;;;;11.70;99.90;;;;;;5084321;28;20126;-70
2022/09/13 05:26:12;;;;;;;;;;;11.70;99.90;;;;;;5084684;28;20124;-70
2022/09/13 05:28:39;;;;;;;;;;;11.70;99.90;;;;;;5085095;28;19924;-71
2022/09/13 05:31:07;;;;;;;;;;;11.70;99.90;;;;;;5084493;28;19920;-70
2022/09/13 05:33:34;;;;;;;;;;;11.80;99.90;;;;;;5083388;28;19927;-70
2022/09/13 05:36:01;;;;;;;;;;;11.80;99.90;;;;;;5084081;28;19929;-70
2022/09/13 05:38:29;;;;;;;;;;;11.80;99.90;;;;;;5084118;28;19920;-70
2022/09/13 05:40:56;;;;;;;;;;;11.90;99.90;;;;;;5078341;28;19921;-69
2022/09/13 05:43:23;;;;;;;;;;;11.90;99.90;;;;;;5063689;28;20204;-71
2022/09/13 05:45:50;;;;;;;;;;;12.00;99.90;;;;;;5064153;28;20290;-70
2022/09/13 05:48:16;;;;;;;;;;;12.00;99.90;;;;;;5064394;28;19987;-71
2022/09/13 05:50:43;;;;;;;;;;;12.10;99.90;;;;;;5064191;28;19920;-71
2022/09/13 05:53:10;;;;;;;;;;;12.20;99.90;;;;;;5064055;28;19927;-70
2022/09/13 05:55:37;;;;;;;;;;;12.20;99.90;;;;;;5064044;28;19956;-69
2022/09/13 05:58:04;;;;;;;;;;;12.30;99.90;;;;;;5064222;28;19921;-69
2022/09/13 06:00:31;;;;;;;;;;;12.30;99.90;;;;;;5063962;28;19988;-70
2022/09/13 06:02:58;;;;;;;;;;;12.40;99.90;;;;;;5066822;28;19968;-70
2022/09/13 06:05:25;;;;;;;;;;;12.40;99.90;;;;;;5075964;28;20131;-69
2022/09/13 06:07:52;;;;;;;;;;;12.40;99.90;;;;;;5068959;28;19921;-69
2022/09/13 06:10:19;;;;;;;;;;;12.40;99.90;;;;;;5063648;28;19956;-70
2022/09/13 06:12:47;;;;;;;;;;;12.50;99.90;;;;;;5062970;28;19921;-70
2022/09/13 06:15:14;;;;;;;;;;;12.50;99.90;;;;;;5063556;28;20254;-70
2022/09/13 06:17:41;;;;;;;;;;;12.60;99.90;;;;;;5064136;28;19921;-70
2022/09/13 06:20:08;;;;;;;;;;;12.60;99.90;;;;;;5063602;28;19984;-69
2022/09/13 06:22:35;;;;;;;;;;;12.60;99.90;;;;;;5062672;28;19964;-72
2022/09/13 06:25:01;;;;;;;;;;;12.70;99.90;;;;;;5063331;28;19928;-69
2022/09/13 06:27:29;;;;;;;;;;;12.70;99.90;;;;;;5063600;28;19963;-68
2022/09/13 06:29:56;;;;;;;;;;;12.80;99.90;;;;;;5063509;28;19925;-70
2022/09/13 06:32:23;;;;;;;;;;;12.80;99.90;;;;;;5063287;28;19921;-69
2022/09/13 06:34:50;;;;;;;;;;;12.90;99.90;;;;;;5062799;28;19952;-70
2022/09/13 06:37:16;;;;;;;;;;;12.90;99.90;;;;;;5063248;28;20124;-70
2022/09/13 06:39:43;;;;;;;;;;;13.00;99.90;;;;;;5063309;28;20231;-69
2022/09/13 06:42:10;;;;;;;;;;;13.10;99.90;;;;;;5063041;28;19953;-70
2022/09/13 06:44:36;;;;;;;;;;;13.20;99.90;;;;;;5062416;28;19983;-69
2022/09/13 06:47:04;;;;;;;;;;;13.20;99.90;;;;;;5063332;28;19920;-70
2022/09/13 06:49:31;;;;;;;;;;;13.30;99.90;;;;;;5063525;28;19928;-69
2022/09/13 06:51:58;;;;;;;;;;;13.40;99.90;;;;;;5062951;28;19956;-70
2022/09/13 06:54:24;;;;;;;;;;;13.40;99.90;;;;;;5062380;28;19960;-68
2022/09/13 06:56:51;;;;;;;;;;;13.50;99.90;;;;;;5060720;28;19935;-70
2022/09/13 06:59:17;;;;;;;;;;;13.60;99.90;;;;;;5063054;28;19971;-70
2022/09/13 07:01:44;;;;;;;;;;;13.70;99.90;;;;;;5080820;28;19920;-70
2022/09/13 07:04:13;;;;;;;;;;;13.80;99.90;;;;;;5075551;28;19926;-70
2022/09/13 07:06:41;;;;;;;;;;;13.90;99.90;;;;;;5062733;28;19951;-70
2022/09/13 07:09:09;;;;;;;;;;;14.00;99.90;;;;;;5062823;28;20238;-70
2022/09/13 07:11:37;;;;;;;;;;;14.00;99.90;;;;;;5062931;28;19921;-69
2022/09/13 07:14:05;;;;;;;;;;;14.10;99.90;;;;;;5062225;28;19928;-69
2022/09/13 07:16:33;;;;;;;;;;;14.20;99.90;;;;;;5062971;28;20140;-70
2022/09/13 07:19:01;;;;;;;;;;;14.30;99.90;;;;;;5063020;28;20116;-70
2022/09/13 07:21:29;;;;;;;;;;;14.40;99.90;;;;;;5062790;28;19928;-69
2022/09/13 07:23:56;;;;;;;;;;;14.50;99.90;;;;;;5062343;28;19920;-69
2022/09/13 07:26:23;;;;;;;;;;;14.60;99.90;;;;;;5062727;28;19928;-70
2022/09/13 07:28:52;;;;;;;;;;;14.70;99.90;;;;;;5062904;28;19963;-70
2022/09/13 07:31:20;;;;;;;;;;;14.80;99.90;;;;;;5063986;28;19921;-69
2022/09/13 07:33:47;;;;;;;;;;;14.80;99.90;;;;;;5064279;28;19924;-69
2022/09/13 07:36:14;;;;;;;;;;;14.90;99.90;;;;;;5066403;28;19956;-70
2022/09/13 07:38:44;;;;;;;;;;;15.00;99.90;;;;;;5084838;28;20207;-70
2022/09/13 07:41:15;;;;;;;;;;;15.00;99.90;;;;;;5083365;28;19924;-69
2022/09/13 07:43:42;;;;;;;;;;;15.00;99.90;;;;;;5072462;28;20136;-70
2022/09/13 07:46:09;;;;;;;;;;;15.20;99.90;;;;;;5072266;28;19983;-70
2022/09/13 07:48:38;;;;;;;;;;;15.30;99.90;;;;;;5071241;28;19920;-70
2022/09/13 07:51:05;;;;;;;;;;;15.40;99.90;;;;;;5073022;28;19963;-70
2022/09/13 07:53:32;;;;;;;;;;;15.40;99.90;;;;;;5065706;28;20163;-70
2022/09/13 07:56:02;;;;;;;;;;;15.50;99.90;;;;;;5065709;28;19920;-69
2022/09/13 07:58:28;;;;;;;;;;;15.60;99.90;;;;;;5065128;28;19920;-69
2022/09/13 08:00:57;;;;;;;;;;;15.70;99.90;;;;;;5073927;28;19920;-70
2022/09/13 08:03:24;;;;;;;;;;;15.80;99.90;;;;;;5070465;28;19920;-70
2022/09/13 08:05:50;;;;;;;;;;;15.80;99.90;;;;;;5085603;28;19928;-68
2022/09/13 08:08:18;;;;;;;;;;;15.90;99.90;;;;;;5083716;28;19926;-70
2022/09/13 08:10:45;;;;;;;;;;;16.00;99.90;;;;;;5085777;28;19920;-70
2022/09/13 08:13:15;;;;;;;;;;;16.10;99.90;;;;;;5075645;28;19992;-70
2022/09/13 08:15:41;;;;;;;;;;;16.20;99.90;;;;;;5065497;28;19927;-69
2022/09/13 08:18:08;;;;;;;;;;;16.40;99.90;;;;;;5065554;28;20004;-70
2022/09/13 08:20:36;;;;;;;;;;;16.50;99.90;;;;;;5066022;28;19921;-71
2022/09/13 08:23:02;;;;;;;;;;;16.60;99.90;;;;;;5073243;28;19992;-70
2022/09/13 08:25:30;;;;;;;;;;;16.80;99.90;;;;;;5085744;28;19927;-69
2022/09/13 08:27:57;;;;;;;;;;;16.90;99.90;;;;;;5071715;28;20119;-70
2022/09/13 08:30:31;;;;;;;;;;;17.00;99.90;;;;;;5065421;28;19963;-69
2022/09/13 08:33:00;;;;;;;;;;;17.10;99.90;;;;;;5062077;28;19929;-71
2022/09/13 08:35:27;;;;;;;;;;;17.10;99.90;;;;;;5065314;28;19943;-70
2022/09/13 08:37:56;;;;;;;;;;;17.30;99.90;;;;;;5065592;28;19921;-69
2022/09/13 08:40:26;;;;;;;;;;;17.40;99.90;;;;;;5065514;28;19921;-69
2022/09/13 08:42:58;;;;;;;;;;;17.50;99.90;;;;;;5072769;28;20007;-70
2022/09/13 08:45:26;;;;;;;;;;;17.60;99.90;;;;;;5071233;28;19928;-70
2022/09/13 08:47:56;;;;;;;;;;;17.80;99.90;;;;;;5084838;28;19924;-69
2022/09/13 08:50:23;;;;;;;;;;;17.90;99.90;;;;;;5085531;28;19931;-69
2022/09/13 08:53:02;;;;;;;;;;;18.10;99.90;;;;;;5084501;28;19926;-69
2022/09/13 08:55:34;;;;;;;;;;;18.10;99.90;;;;;;5076261;28;19996;-70
2022/09/13 08:58:05;;;;;;;;;;;18.20;99.90;;;;;;5085184;28;20012;-70
2022/09/13 09:00:37;;;;;;;;;;;18.40;99.90;;;;;;5084986;28;19952;-69
2022/09/13 09:03:11;;;;;;;;;;;18.50;99.90;;;;;;5084859;28;19927;-69
2022/09/13 09:05:46;;;;;;;;;;;18.60;99.90;;;;;;5084616;28;20246;-69
2022/09/13 09:08:15;;;;;;;;;;;18.70;99.90;;;;;;5084362;28;19921;-69
2022/09/13 09:10:42;;;;;;;;;;;18.90;99.90;;;;;;5085015;28;19920;-69
2022/09/13 09:13:14;;;;;;;;;;;19.00;99.90;;;;;;5084084;28;19948;-70
2022/09/13 09:15:44;;;;;;;;;;;19.00;99.90;;;;;;5084444;28;19952;-70
2022/09/13 09:18:13;;;;;;;;;;;19.00;99.90;;;;;;5080520;28;19920;-70
2022/09/13 09:20:41;;;;;;;;;;;19.00;99.90;;;;;;5064277;28;20172;-69
2022/09/13 09:23:12;;;;;;;;;;;19.10;99.90;;;;;;5069372;28;19924;-69
2022/09/13 09:25:39;;;;;;;;;;;19.00;99.90;;;;;;5084283;28;19927;-69
2022/09/13 09:28:11;;;;;;;;;;;19.10;99.90;;;;;;5084211;28;19951;-69
2022/09/13 09:30:41;;;;;;;;;;;19.10;99.90;;;;;;5083267;28;19921;-70
2022/09/13 09:33:19;;;;;;;;;;;19.10;99.90;;;;;;5081170;28;19984;-70
2022/09/13 09:35:49;;;;;;;;;;;19.20;99.90;;;;;;5084151;28;19920;-70
2022/09/13 09:38:24;;;;;;;;;;;19.30;99.90;;;;;;5084130;28;19921;-69
2022/09/13 09:40:52;;;;;;;;;;;19.40;99.90;;;;;;5084368;28;19920;-69
2022/09/13 09:43:22;;;;;;;;;;;19.50;99.90;;;;;;5078931;28;19959;-69
2022/09/13 09:45:51;;;;;;;;;;;19.60;99.90;;;;;;5072963;28;19920;-69
2022/09/13 09:48:22;;;;;;;;;;;19.70;99.90;;;;;;5064207;28;19959;-69
2022/09/13 09:50:50;;;;;;;;;;;19.80;99.90;;;;;;5063971;28;19927;-70
2022/09/13 09:53:23;;;;;;;;;;;19.90;99.90;;;;;;5063619;28;20111;-69
2022/09/13 09:55:52;;;;;;;;;;;20.00;99.90;;;;;;5077943;28;19921;-70
2022/09/13 09:58:35;;;;;;;;;;;20.00;99.90;;;;;;5083695;28;20119;-70
2022/09/13 10:01:02;;;;;;;;;;;20.00;99.90;;;;;;5083733;28;19921;-69
2022/09/13 10:03:32;;;;;;;;;;;20.10;99.90;;;;;;5083200;28;19943;-70
2022/09/13 10:06:06;;;;;;;;;;;20.10;99.90;;;;;;5083313;28;19920;-70
2022/09/13 10:08:33;;;;;;;;;;;20.10;99.90;;;;;;5083425;28;19921;-70
2022/09/13 10:11:00;;;;;;;;;;;20.10;99.90;;;;;;5083759;28;19920;-69
2022/09/13 10:13:28;;;;;;;;;;;20.10;99.90;;;;;;5082958;28;19955;-70
2022/09/13 10:15:57;;;;;;;;;;;20.10;99.90;;;;;;5083545;28;19943;-69
2022/09/13 10:18:26;;;;;;;;;;;20.10;99.90;;;;;;5077537;28;19921;-70
2022/09/13 10:21:04;;;;;;;;;;;20.10;99.90;;;;;;5071471;28;19968;-69
2022/09/13 10:35:24;;;;;;;;;;;20.20;99.90;;;;;;5106101;22;19927;-72
2022/09/13 10:37:52;;;;;;;;;;;20.40;99.90;;;;;;5063114;28;20230;-72
2022/09/13 10:40:22;;;;;;;;;;;20.50;99.90;;;;;;5063282;28;19943;-70
2022/09/13 10:42:53;;;;;;;;;;;20.50;99.90;;;;;;5059882;28;19956;-71
2022/09/13 10:45:22;;;;;;;;;;;20.60;99.90;;;;;;5063231;28;20269;-71
2022/09/13 10:47:50;;;;;;;;;;;20.60;99.90;;;;;;5063194;28;19956;-71
2022/09/13 10:50:23;;;;;;;;;;;20.70;99.90;;;;;;5062858;28;19928;-70
2022/09/13 10:52:50;;;;;;;;;;;20.70;99.90;;;;;;5062640;28;19987;-71
2022/09/13 10:55:32;;;;;;;;;;;20.80;99.90;;;;;;5062636;28;19956;-70
2022/09/13 10:58:16;;;;;;;;;;;20.90;99.90;;;;;;5063036;28;19920;-70
2022/09/13 11:00:53;;;;;;;;;;;21.00;99.90;;;;;;5062784;28;19920;-70
2022/09/13 11:03:25;;;;;;;;;;;21.10;99.90;;;;;;5062467;28;20093;-70
2022/09/13 11:05:55;;;;;;;;;;;21.10;99.90;;;;;;5062873;28;19952;-71
2022/09/13 11:08:30;;;;;;;;;;;21.10;99.90;;;;;;5064468;28;19931;-70
2022/09/13 11:11:04;;;;;;;;;;;21.10;99.90;;;;;;5066570;28;19952;-71
2022/09/13 11:13:34;;;;;;;;;;;21.10;99.90;;;;;;5066553;28;19920;-71
2022/09/13 11:16:06;;;;;;;;;;;21.10;99.90;;;;;;5066897;28;19992;-71
2022/09/13 11:18:39;;;;;;;;;;;21.10;99.90;;;;;;5066911;28;20212;-71
2022/09/13 11:21:12;;;;;;;;;;;21.10;99.90;;;;;;5066475;28;20180;-71
2022/09/13 11:23:53;;;;;;;;;;;21.00;99.90;;;;;;5065712;28;19954;-72
2022/09/13 11:26:27;;;;;;;;;;;21.00;99.90;;;;;;5065631;28;19927;-70
2022/09/13 11:29:13;;;;;;;;;;;21.00;99.90;;;;;;5066089;28;20271;-70
2022/09/13 11:31:43;;;;;;;;;;;21.00;99.90;;;;;;5066337;28;19920;-71
2022/09/13 11:34:21;;;;;;;;;;;21.00;99.90;;;;;;5065705;28;19932;-71
2022/09/13 11:36:56;;;;;;;;;;;20.90;99.90;;;;;;5065907;28;20208;-70
2022/09/13 11:39:30;;;;;;;;;;;20.90;99.90;;;;;;5066069;28;20204;-73
2022/09/13 11:42:09;;;;;;;;;;;20.90;99.90;;;;;;5064473;28;19927;-71
2022/09/13 11:44:50;;;;;;;;;;;20.90;99.90;;;;;;5066033;28;19955;-72
2022/09/13 11:47:22;;;;;;;;;;;20.90;99.90;;;;;;5065273;28;19955;-73
2022/09/13 11:50:00;;;;;;;;;;;20.90;99.90;;;;;;5066755;28;19987;-73
2022/09/13 11:52:33;;;;;;;;;;;21.00;99.90;;;;;;5066525;28;19920;-72
2022/09/13 11:55:03;;;;;;;;;;;21.10;99.90;;;;;;5065854;28;19994;-73
2022/09/13 11:57:34;;;;;;;;;;;21.00;99.90;;;;;;5066673;28;19987;-72
2022/09/13 12:00:15;;;;;;;;;;;21.10;99.90;;;;;;5066630;28;19921;-72
2022/09/13 12:02:43;;;;;;;;;;;21.20;99.90;;;;;;5065882;28;19950;-71
2022/09/13 12:05:14;;;;;;;;;;;21.20;99.90;;;;;;5066327;28;19921;-72
2022/09/13 12:07:46;;;;;;;;;;;21.30;99.90;;;;;;5066342;28;19963;-73
2022/09/13 12:10:16;;;;;;;;;;;21.40;99.90;;;;;;5066274;28;19987;-72
2022/09/13 12:12:48;;;;;;;;;;;21.40;99.90;;;;;;5065791;28;20012;-72
2022/09/13 12:15:16;;;;;;;;;;;21.50;99.90;;;;;;5065972;28;19921;-72
2022/09/13 12:17:45;;;;;;;;;;;21.60;99.90;;;;;;5066227;28;19921;-73
2022/09/13 12:20:14;;;;;;;;;;;21.80;99.90;;;;;;5063596;28;19921;-72
2022/09/13 12:22:42;;;;;;;;;;;21.90;99.90;;;;;;5047418;28;19921;-72
2022/09/13 12:25:16;;;;;;;;;;;22.00;99.90;;;;;;5065944;28;20099;-71
2022/09/13 12:27:48;;;;;;;;;;;22.20;99.90;;;;;;5066084;28;19921;-72
2022/09/13 12:30:17;;;;;;;;;;;22.30;99.90;;;;;;5065819;28;19988;-72
2022/09/13 12:32:45;;;;;;;;;;;22.40;99.90;;;;;;5065277;28;19927;-72
2022/09/13 12:35:17;;;;;;;;;;;22.50;99.90;;;;;;5065673;28;20216;-72
2022/09/13 12:38:14;;;;;;;;;;;22.50;99.90;;;;;;5065931;28;19921;-72
2022/09/13 12:40:48;;;;;;;;;;;22.50;99.90;;;;;;5066131;28;20204;-72
2022/09/13 12:43:29;;;;;;;;;;;22.50;99.90;;;;;;5062353;28;19920;-71
2022/09/13 12:46:16;;;;;;;;;;;22.50;99.90;;;;;;5056385;28;19921;-73
2022/09/13 12:48:56;;;;;;;;;;;22.50;99.90;;;;;;5065979;28;19927;-72
2022/09/13 12:51:30;;;;;;;;;;;22.60;99.90;;;;;;5065164;28;19959;-68
2022/09/13 12:54:11;;;;;;;;;;;22.80;99.90;;;;;;5063359;28;20196;-70
2022/09/13 12:56:48;;;;;;;;;;;22.90;99.90;;;;;;5061904;28;19921;-71
2022/09/13 12:59:24;;;;;;;;;;;23.00;99.90;;;;;;5065350;28;20208;-68
2022/09/13 13:01:59;;;;;;;;;;;23.10;99.90;;;;;;5065033;28;19993;-69
2022/09/13 13:04:27;;;;;;;;;;;23.00;99.90;;;;;;5063306;28;19921;-69
2022/09/13 13:06:56;;;;;;;;;;;22.90;99.90;;;;;;5062590;28;19995;-69
2022/09/13 13:09:27;;;;;;;;;;;22.90;99.90;;;;;;5064953;28;20310;-69
2022/09/13 13:11:55;;;;;;;;;;;22.90;99.90;;;;;;5065003;28;19929;-69
2022/09/13 13:14:27;;;;;;;;;;;22.70;99.90;;;;;;5064295;28;19952;-69
2022/09/13 13:17:15;;;;;;;;;;;22.60;99.90;;;;;;5064942;28;20107;-69
2022/09/13 13:19:43;;;;;;;;;;;22.50;99.90;;;;;;5064947;28;20000;-69
2022/09/13 13:22:28;;;;;;;;;;;22.50;99.90;;;;;;5064940;28;19920;-69
2022/09/13 13:24:57;;;;;;;;;;;22.50;99.90;;;;;;5064106;28;19920;-70
2022/09/13 13:27:50;;;;;;;;;;;22.40;99.90;;;;;;5064742;28;20149;-69
2022/09/13 13:30:35;;;;;;;;;;;22.30;99.90;;;;;;5061928;28;19921;-70
2022/09/13 13:33:13;;;;;;;;;;;22.40;99.90;;;;;;5064114;28;19988;-70
2022/09/13 13:35:39;;;;;;;;;;;22.30;99.90;;;;;;5064417;28;20119;-72
2022/09/13 13:38:16;;;;;;;;;;;22.30;99.90;;;;;;5064023;28;19959;-71
2022/09/13 13:40:43;;;;;;;;;;;22.40;99.90;;;;;;5064780;28;20117;-70
2022/09/13 13:43:17;;;;;;;;;;;22.40;99.90;;;;;;5046182;28;19928;-70
2022/09/13 13:45:59;;;;;;;;;;;22.30;99.90;;;;;;5062671;28;19928;-70
2022/09/13 13:48:36;;;;;;;;;;;22.30;99.90;;;;;;5064320;28;19971;-71
2022/09/13 13:51:13;;;;;;;;;;;22.30;99.90;;;;;;5064264;28;19948;-72
2022/09/13 13:53:41;;;;;;;;;;;22.20;99.90;;;;;;5066576;28;19927;-71
2022/09/13 13:56:15;;;;;;;;;;;22.30;99.90;;;;;;5082925;28;19996;-73
2022/09/13 13:58:46;;;;;;;;;;;22.20;99.90;;;;;;5084390;28;19943;-72
2022/09/13 14:01:16;;;;;;;;;;;22.20;99.90;;;;;;5071715;28;19984;-70
2022/09/13 14:03:52;;;;;;;;;;;22.20;99.90;;;;;;5055473;28;20243;-70
2022/09/13 14:06:23;;;;;;;;;;;22.10;99.90;;;;;;5062803;28;20230;-72
2022/09/13 14:09:05;;;;;;;;;;;22.00;99.90;;;;;;5061391;28;19928;-72
2022/09/13 14:11:43;;;;;;;;;;;22.00;99.90;;;;;;5063730;28;19920;-71
2022/09/13 14:14:15;;;;;;;;;;;22.00;99.90;;;;;;5043095;28;19959;-71
2022/09/13 14:16:47;;;;;;;;;;;22.00;99.90;;;;;;5054543;28;19952;-71
2022/09/13 14:19:22;;;;;;;;;;;22.00;99.90;;;;;;5063517;28;19925;-72
2022/09/13 14:22:04;;;;;;;;;;;22.00;99.90;;;;;;5063981;28;19987;-72
2022/09/13 14:24:37;;;;;;;;;;;22.00;99.90;;;;;;5052144;28;19948;-70
2022/09/13 14:27:04;;;;;;;;;;;22.20;99.90;;;;;;5062963;28;20000;-72
2022/09/13 14:29:31;;;;;;;;;;;22.30;99.90;;;;;;5063682;28;19929;-71
2022/09/13 14:32:02;;;;;;;;;;;22.30;99.90;;;;;;5063235;28;19948;-71
2022/09/13 14:34:37;;;;;;;;;;;22.30;99.90;;;;;;5062696;28;19921;-72
2022/09/13 14:37:18;;;;;;;;;;;22.30;99.90;;;;;;5062019;28;19920;-71
2022/09/13 14:39:53;;;;;;;;;;;22.40;99.90;;;;;;5063650;28;19921;-71
2022/09/13 14:42:20;;;;;;;;;;;22.40;99.90;;;;;;5063433;28;20179;-70
2022/09/13 14:44:47;;;;;;;;;;;22.40;99.90;;;;;;5062499;28;19951;-71
2022/09/13 14:47:18;;;;;;;;;;;22.40;99.90;;;;;;5063536;28;19959;-71